createdAt,value
2022-09-05T00:00:11.622Z,1.00
2022-09-05T00:03:01.452Z,1.30
2022-09-05T00:05:50.997Z,1.27
2022-09-05T00:08:50.969Z,1.13
2022-09-05T00:11:42.401Z,1.20
2022-09-05T00:14:53.182Z,1.43
2022-09-05T00:18:00.239Z,1.40
2022-09-05T00:24:25.693Z,1.60
2022-09-05T00:24:35.631Z,1.40
2022-09-05T00:26:29.483Z,1.10
2022-09-05T00:29:12.885Z,2.20
2022-09-05T00:31:59.277Z,2.13
2022-09-05T00:34:54.065Z,1.17
2022-09-05T00:37:34.593Z,1.30
2022-09-05T00:40:25.793Z,1.20
2022-09-05T00:42:59.372Z,1.10
2022-09-05T00:45:37.295Z,1.10
2022-09-05T00:48:29.848Z,1.47
2022-09-05T00:51:08.908Z,1.30
2022-09-05T00:53:50.624Z,1.20
2022-09-05T00:56:40.729Z,1.17
2022-09-05T00:59:58.931Z,1.30
2022-09-05T01:02:52.100Z,1.70
2022-09-05T01:05:36.896Z,1.47
2022-09-05T01:08:23.476Z,1.20
2022-09-05T01:11:03.376Z,1.80
2022-09-05T01:13:41.966Z,1.40
2022-09-05T01:16:22.301Z,1.13
2022-09-05T01:19:05.476Z,1.30
2022-09-05T01:21:54.980Z,1.57
2022-09-05T01:24:54.431Z,1.27
2022-09-05T01:28:36.998Z,1.30
2022-09-05T01:30:49.549Z,1.53
2022-09-05T01:33:31.100Z,1.37
2022-09-05T01:36:29.864Z,1.30
2022-09-05T01:40:14.698Z,1.30
2022-09-05T01:42:00.443Z,1.40
2022-09-05T01:44:55.422Z,1.40
2022-09-05T01:47:38.050Z,1.60
2022-09-05T01:50:21.658Z,1.47
2022-09-05T01:53:15.493Z,1.17
2022-09-05T01:56:04.736Z,1.27
2022-09-05T01:58:52.560Z,1.80
2022-09-05T02:01:33.463Z,1.83
2022-09-05T02:04:34.928Z,1.70
2022-09-05T02:07:19.967Z,1.57
2022-09-05T02:10:30.416Z,1.50
2022-09-05T02:13:04.855Z,1.50
2022-09-05T02:15:59.742Z,1.53
2022-09-05T02:18:47.859Z,1.50
2022-09-05T02:21:24.989Z,1.60
2022-09-05T02:24:06.221Z,1.43
2022-09-05T02:26:43.723Z,1.90
2022-09-05T02:29:28.803Z,1.47
2022-09-05T02:32:09.807Z,1.50
2022-09-05T02:34:46.155Z,1.50
2022-09-05T02:38:07.595Z,1.87
2022-09-05T02:45:09.420Z,1.60
2022-09-05T02:45:16.330Z,1.57
2022-09-05T02:46:13.490Z,1.90
2022-09-05T02:48:55.172Z,1.60
2022-09-05T02:57:23.869Z,1.73
2022-09-05T02:57:40.794Z,1.73
2022-09-05T02:58:07.008Z,2.00
2022-09-05T03:00:34.440Z,1.70
2022-09-05T03:03:20.382Z,1.90
2022-09-05T03:05:58.025Z,1.80
2022-09-05T03:09:16.843Z,1.93
2022-09-05T03:12:28.890Z,1.93
2022-09-05T03:15:24.379Z,2.20
2022-09-05T03:18:19.912Z,2.00
2022-09-05T03:21:41.454Z,2.00
2022-09-05T03:24:55.615Z,1.87
2022-09-05T03:27:49.488Z,2.30
2022-09-05T03:30:22.227Z,1.90
2022-09-05T03:33:40.258Z,2.17
2022-09-05T03:36:57.980Z,1.80
2022-09-05T03:40:02.034Z,2.00
2022-09-05T03:43:03.346Z,2.10
2022-09-05T03:46:01.122Z,2.10
2022-09-05T03:49:07.129Z,2.17
2022-09-05T03:57:05.881Z,1.70
2022-09-05T03:57:10.481Z,1.67
2022-09-05T03:58:55.967Z,2.03
2022-09-05T04:03:05.771Z,2.33
2022-09-05T04:08:15.900Z,1.80
2022-09-05T04:08:16.280Z,1.80
2022-09-05T04:10:31.280Z,2.23
2022-09-05T04:13:06.673Z,1.90
2022-09-05T04:15:41.856Z,2.23
2022-09-05T04:18:33.562Z,2.00
2022-09-05T04:21:09.323Z,1.93
2022-09-05T04:24:01.090Z,2.20
2022-09-05T04:26:51.336Z,2.20
2022-09-05T04:29:31.901Z,1.90
2022-09-05T04:32:18.874Z,2.73
2022-09-05T04:35:22.162Z,2.80
2022-09-05T04:37:59.386Z,2.50
2022-09-05T04:40:41.098Z,1.97
2022-09-05T04:43:16.247Z,2.37
2022-09-05T04:45:51.047Z,2.93
2022-09-05T04:48:25.362Z,3.10
2022-09-05T04:51:13.170Z,2.80
2022-09-05T04:54:23.144Z,2.87
2022-09-05T04:57:13.711Z,2.30
2022-09-05T05:04:57.462Z,4.70
2022-09-05T05:06:13.504Z,3.73
2022-09-05T05:06:16.462Z,4.10
2022-09-05T05:08:48.883Z,4.40
2022-09-05T05:17:10.898Z,3.17
2022-09-05T05:18:03.938Z,2.37
2022-09-05T05:18:10.722Z,2.90
2022-09-05T05:20:41.212Z,2.27
2022-09-05T05:23:09.228Z,2.30
2022-09-05T05:25:50.599Z,2.50
2022-09-05T05:28:28.637Z,2.70
2022-09-05T05:31:10.291Z,2.20
2022-09-05T05:33:43.233Z,2.00
2022-09-05T05:36:22.855Z,2.17
2022-09-05T05:39:00.125Z,2.60
2022-09-05T05:41:37.487Z,2.50
2022-09-05T05:44:14.270Z,2.43
2022-09-05T05:46:48.539Z,2.90
2022-09-05T05:49:40.840Z,1.93
2022-09-05T05:52:43.047Z,1.83
2022-09-05T05:55:52.796Z,2.42
2022-09-05T05:58:47.181Z,2.00
2022-09-05T06:02:01.756Z,2.38
2022-09-05T06:05:09.900Z,2.40
2022-09-05T06:09:18.428Z,2.22
2022-09-05T06:14:58.422Z,2.90
2022-09-05T06:15:09.131Z,2.42
2022-09-05T06:18:11.542Z,2.22
2022-09-05T06:22:11.422Z,2.20
2022-09-05T06:24:39.773Z,2.10
2022-09-05T06:28:17.888Z,2.35
2022-09-05T06:30:44.198Z,2.00
2022-09-05T06:33:28.295Z,2.53
2022-09-05T06:36:16.606Z,2.40
2022-09-05T06:39:02.960Z,2.65
2022-09-05T06:41:42.238Z,2.35
2022-09-05T06:44:47.274Z,2.40
2022-09-05T06:47:33.704Z,2.60
2022-09-05T06:50:27.209Z,2.78
2022-09-05T06:53:35.922Z,2.40
2022-09-05T06:56:25.933Z,2.58
2022-09-05T06:59:38.948Z,2.55
2022-09-05T07:02:58.078Z,1.98
2022-09-05T07:05:40.091Z,1.77
2022-09-05T07:08:35.298Z,2.35
2022-09-05T07:11:16.083Z,1.85
2022-09-05T07:13:57.597Z,2.40
2022-09-05T07:16:47.558Z,2.15
2022-09-05T07:19:26.635Z,1.90
2022-09-05T07:22:46.400Z,2.20
2022-09-05T07:25:18.306Z,1.85
2022-09-05T07:28:29.834Z,2.25
2022-09-05T07:30:50.693Z,2.20
2022-09-05T07:33:23.089Z,2.50
2022-09-05T07:35:53.253Z,2.25
2022-09-05T07:38:26.776Z,2.30
2022-09-05T07:41:22.643Z,2.28
2022-09-05T07:43:58.792Z,2.30
2022-09-05T07:46:32.363Z,2.28
2022-09-05T07:49:05.029Z,2.25
2022-09-05T07:56:56.830Z,1.60
2022-09-05T07:57:01.480Z,2.30
2022-09-05T07:57:31.665Z,2.20
2022-09-05T08:00:25.564Z,2.10
2022-09-05T08:02:58.721Z,1.65
2022-09-05T08:05:35.101Z,2.00
2022-09-05T08:08:09.681Z,2.33
2022-09-05T08:11:21.937Z,1.90
2022-09-05T08:14:40.585Z,2.22
2022-09-05T08:16:48.632Z,2.03
2022-09-05T08:19:39.994Z,1.75
2022-09-05T08:22:14.746Z,1.88
2022-09-05T08:24:53.806Z,2.22
2022-09-05T08:27:29.659Z,1.92
2022-09-05T08:30:26.945Z,1.70
2022-09-05T08:33:11.453Z,2.42
2022-09-05T08:35:45.553Z,1.98
2022-09-05T08:38:15.896Z,1.50
2022-09-05T08:40:52.431Z,2.30
2022-09-05T08:44:59.540Z,1.88
2022-09-05T08:46:42.506Z,2.13
2022-09-05T08:49:45.550Z,2.00
2022-09-05T08:52:26.096Z,1.90
2022-09-05T08:55:07.473Z,1.55
2022-09-05T08:57:57.434Z,1.88
2022-09-05T09:00:31.418Z,2.00
2022-09-05T09:03:20.489Z,1.70
2022-09-05T09:06:17.105Z,1.60
2022-09-05T09:09:06.009Z,2.30
2022-09-05T09:11:38.263Z,2.03
2022-09-05T09:14:46.210Z,1.58
2022-09-05T09:17:41.517Z,2.25
2022-09-05T09:20:29.328Z,2.05
2022-09-05T09:23:05.786Z,1.90
2022-09-05T09:25:42.511Z,1.98
2022-09-05T09:28:50.297Z,1.90
2022-09-05T09:31:33.049Z,1.90
2022-09-05T09:34:29.450Z,2.20
2022-09-05T09:37:50.570Z,1.40
2022-09-05T09:40:52.374Z,2.05
2022-09-05T09:43:52.566Z,1.55
2022-09-05T09:46:30.908Z,1.60
2022-09-05T09:49:22.778Z,1.92
2022-09-05T09:52:22.437Z,1.77
2022-09-05T09:55:23.552Z,1.75
2022-09-05T09:58:15.744Z,1.88
2022-09-05T10:00:52.523Z,1.95
2022-09-05T10:06:45.329Z,2.13
2022-09-05T10:10:52.850Z,2.25
2022-09-05T10:10:53.339Z,2.13
2022-09-05T10:13:28.709Z,2.45
2022-09-05T10:16:41.565Z,2.47
2022-09-05T10:22:43.908Z,2.17
2022-09-05T10:25:34.446Z,1.70
2022-09-05T10:28:15.018Z,2.50
2022-09-05T10:32:36.077Z,1.88
2022-09-05T10:35:16.996Z,1.67
2022-09-05T10:36:31.701Z,1.65
2022-09-05T10:39:18.873Z,1.70
2022-09-05T10:41:56.736Z,1.77
2022-09-05T10:44:40.437Z,1.92
2022-09-05T10:47:24.710Z,1.33
2022-09-05T10:50:07.826Z,1.60
2022-09-05T10:52:41.514Z,1.50
2022-09-05T10:55:19.630Z,1.50
2022-09-05T10:58:01.956Z,1.50
2022-09-05T11:02:20.740Z,1.30
2022-09-05T11:03:50.251Z,1.63
2022-09-05T11:06:25.150Z,1.65
2022-09-05T11:09:06.617Z,1.35
2022-09-05T11:11:45.970Z,1.45
2022-09-05T11:14:36.135Z,1.60
2022-09-05T11:17:15.294Z,1.30
2022-09-05T11:19:52.847Z,1.60
2022-09-05T11:22:25.600Z,1.17
2022-09-05T11:24:57.237Z,1.48
2022-09-05T11:27:32.855Z,1.50
2022-09-05T11:30:06.940Z,1.50
2022-09-05T11:39:45.900Z,1.52
2022-09-05T11:40:02.704Z,1.30
2022-09-05T11:40:07.144Z,1.63
2022-09-05T11:42:37.248Z,1.40
2022-09-05T11:45:38.048Z,1.50
2022-09-05T11:48:36.998Z,1.33
2022-09-05T11:51:34.956Z,1.40
2022-09-05T11:54:46.659Z,1.60
2022-09-05T11:57:38.722Z,1.23
2022-09-05T12:00:32.042Z,1.40
2022-09-05T12:03:59.480Z,1.20
2022-09-05T12:06:56.327Z,1.45
2022-09-05T12:09:42.730Z,1.30
2022-09-05T12:12:38.544Z,1.70
2022-09-05T12:15:27.275Z,1.83
2022-09-05T12:18:19.472Z,1.83
2022-09-05T12:21:19.426Z,1.70
2022-09-05T12:24:54.947Z,1.48
2022-09-05T12:27:39.240Z,1.48
2022-09-05T12:29:51.206Z,1.58
2022-09-05T12:34:57.318Z,1.50
2022-09-05T12:36:12.714Z,1.88
2022-09-05T12:40:55.286Z,2.03
2022-09-05T12:42:10.083Z,1.60
2022-09-05T12:44:44.823Z,1.58
2022-09-05T12:47:22.310Z,1.65
2022-09-05T12:50:03.412Z,1.70
2022-09-05T12:52:46.513Z,1.77
2022-09-05T12:55:26.628Z,2.05
2022-09-05T13:02:56.973Z,2.08
2022-09-05T13:03:07.997Z,1.60
2022-09-05T13:04:16.165Z,1.30
2022-09-05T13:06:43.556Z,1.90
2022-09-05T13:09:30.785Z,1.58
2022-09-05T13:14:48.965Z,1.77
2022-09-05T13:15:22.424Z,1.60
2022-09-05T13:18:00.259Z,1.77
2022-09-05T13:20:36.832Z,1.58
2022-09-05T13:23:17.712Z,1.98
2022-09-05T13:25:58.510Z,1.45
2022-09-05T13:28:35.232Z,1.73
2022-09-05T13:35:30.061Z,1.45
2022-09-05T13:38:03.701Z,1.70
2022-09-05T13:38:10.676Z,1.70
2022-09-05T13:39:51.751Z,1.27
2022-09-05T13:42:23.261Z,1.55
2022-09-05T13:44:57.358Z,1.73
2022-09-05T13:47:50.903Z,1.67
2022-09-05T13:50:26.173Z,1.42
2022-09-05T13:53:04.803Z,1.33
2022-09-05T13:55:44.043Z,1.40
2022-09-05T13:58:21.470Z,1.77
2022-09-05T14:01:26.836Z,1.45
2022-09-05T14:08:17.929Z,1.50
2022-09-05T14:11:20.101Z,1.73
2022-09-05T14:14:11.464Z,1.92
2022-09-05T14:16:53.704Z,1.55
2022-09-05T14:19:44.025Z,1.60
2022-09-05T14:22:22.226Z,1.83
2022-09-05T14:24:58.232Z,1.75
2022-09-05T14:27:32.178Z,2.15
2022-09-05T14:30:59.371Z,2.03
2022-09-05T14:37:35.294Z,1.48
2022-09-05T14:37:43.862Z,1.90
2022-09-05T14:39:22.858Z,1.83
2022-09-05T14:42:21.274Z,1.83
2022-09-05T14:45:31.519Z,1.50
2022-09-05T14:48:30.445Z,2.00
2022-09-05T14:51:25.223Z,1.70
2022-09-05T14:54:02.162Z,2.00
2022-09-05T14:58:55.318Z,1.80
2022-09-05T15:02:41.402Z,1.80
2022-09-05T15:02:52.607Z,1.30
2022-09-05T15:05:35.319Z,1.58
2022-09-05T15:08:38.182Z,1.40
2022-09-05T15:12:14.224Z,1.45
2022-09-05T15:13:57.333Z,1.63
2022-09-05T15:16:28.113Z,1.55
2022-09-05T15:18:58.382Z,1.67
2022-09-05T15:21:34.084Z,1.50
2022-09-05T15:24:17.044Z,1.90
2022-09-05T15:26:52.877Z,2.53
2022-09-05T15:29:25.569Z,2.03
2022-09-05T15:32:14.447Z,1.50
2022-09-05T15:34:43.520Z,1.80
2022-09-05T15:37:36.696Z,1.60
2022-09-05T15:40:23.297Z,1.50
2022-09-05T15:42:56.574Z,1.80
2022-09-05T15:45:29.006Z,1.80
2022-09-05T15:48:15.987Z,1.60
2022-09-05T15:50:51.037Z,1.52
2022-09-05T15:53:26.566Z,1.52
2022-09-05T15:56:04.885Z,1.40
2022-09-05T15:58:52.073Z,1.77
2022-09-05T16:01:31.215Z,1.55
2022-09-05T16:08:34.159Z,2.22
2022-09-05T16:10:34.786Z,1.95
2022-09-05T16:10:47.207Z,1.63
2022-09-05T16:13:13.852Z,1.60
2022-09-05T16:19:38.971Z,1.80
2022-09-05T16:23:31.776Z,1.70
2022-09-05T16:23:32.905Z,1.50
2022-09-05T16:24:58.182Z,1.92
2022-09-05T16:27:22.934Z,1.65
2022-09-05T16:29:52.165Z,1.67
2022-09-05T16:32:27.379Z,1.65
2022-09-05T16:35:00.161Z,1.63
2022-09-05T16:37:40.110Z,1.70
2022-09-05T16:40:15.504Z,1.60
2022-09-05T16:42:50.695Z,1.40
2022-09-05T16:45:32.196Z,1.58
2022-09-05T16:48:11.439Z,1.40
2022-09-05T16:50:50.420Z,1.75
2022-09-05T16:53:34.279Z,1.52
2022-09-05T16:56:08.869Z,1.38
2022-09-05T16:58:44.630Z,1.73
2022-09-05T17:01:41.171Z,1.50
2022-09-05T17:04:17.148Z,1.23
2022-09-05T17:06:55.915Z,1.30
2022-09-05T17:09:28.947Z,1.38
2022-09-05T17:12:02.242Z,1.63
2022-09-05T17:14:37.942Z,1.52
2022-09-05T17:17:43.962Z,1.25
2022-09-05T17:20:14.465Z,1.50
2022-09-05T17:25:14.031Z,1.50
2022-09-05T17:29:32.751Z,1.65
2022-09-05T17:29:34.488Z,1.70
2022-09-05T17:31:57.559Z,1.50
2022-09-05T17:34:50.277Z,1.80
2022-09-05T17:37:44.511Z,1.65
2022-09-05T17:40:59.457Z,1.50
2022-09-05T17:43:33.091Z,1.40
2022-09-05T17:46:18.528Z,1.67
2022-09-05T17:49:40.403Z,1.40
2022-09-05T17:52:24.045Z,1.10
2022-09-05T17:54:55.284Z,1.60
2022-09-05T17:57:51.264Z,1.70
2022-09-05T18:04:18.002Z,1.38
2022-09-05T18:06:59.450Z,1.63
2022-09-05T18:10:11.918Z,1.50
2022-09-05T18:13:14.329Z,1.70
2022-09-05T18:19:33.242Z,1.20
2022-09-05T18:22:13.118Z,1.35
2022-09-05T18:24:46.769Z,1.77
2022-09-05T18:28:03.333Z,1.30
2022-09-05T18:30:26.133Z,1.60
2022-09-05T18:33:55.029Z,1.42
2022-09-05T18:36:40.020Z,1.48
2022-09-05T18:39:45.043Z,1.27
2022-09-05T18:42:33.666Z,1.50
2022-09-05T18:45:14.746Z,1.42
2022-09-05T18:47:53.107Z,1.77
2022-09-05T18:50:32.514Z,1.63
2022-09-05T18:53:10.039Z,1.73
2022-09-05T18:56:12.182Z,1.35
2022-09-05T18:58:52.389Z,1.70
2022-09-05T19:01:28.503Z,1.80
2022-09-05T19:04:02.771Z,1.60
2022-09-05T19:06:37.943Z,1.75
2022-09-05T19:09:11.053Z,1.60
2022-09-05T19:11:54.703Z,1.63
2022-09-05T19:14:44.037Z,2.00
2022-09-05T19:17:21.998Z,1.55
2022-09-05T19:20:33.001Z,1.70
2022-09-05T19:23:09.940Z,1.65
2022-09-05T19:25:43.655Z,1.60
2022-09-05T19:33:11.330Z,1.60
2022-09-05T19:36:45.353Z,1.77
2022-09-05T19:37:03.435Z,1.60
2022-09-05T19:37:22.638Z,1.90
2022-09-05T19:42:20.017Z,1.80
2022-09-05T19:47:34.474Z,1.90
2022-09-05T19:47:37.850Z,2.08
2022-09-05T19:48:28.133Z,2.05
2022-09-05T19:50:58.860Z,1.88
2022-09-05T19:53:31.025Z,2.10
2022-09-05T19:56:06.836Z,2.10
2022-09-05T19:58:35.985Z,1.85
2022-09-05T20:01:13.791Z,1.90
2022-09-05T20:03:46.255Z,1.88
2022-09-05T20:06:29.152Z,2.00
2022-09-05T20:09:11.302Z,2.58
2022-09-05T20:11:45.593Z,1.80
2022-09-05T20:14:21.480Z,1.73
2022-09-05T20:16:53.894Z,1.80
2022-09-05T20:19:30.862Z,1.38
2022-09-05T20:22:14.328Z,2.13
2022-09-05T20:24:54.197Z,1.63
2022-09-05T20:27:28.628Z,1.50
2022-09-05T20:30:00.923Z,1.63
2022-09-05T20:32:38.723Z,1.40
2022-09-05T20:38:17.745Z,1.80
2022-09-05T20:43:22.127Z,1.23
2022-09-05T20:43:22.837Z,1.38
2022-09-05T20:44:17.353Z,1.40
2022-09-05T20:51:19.907Z,1.10
2022-09-05T20:54:20.955Z,1.20
2022-09-05T20:54:22.586Z,1.20
2022-09-05T20:55:41.430Z,0.85
2022-09-05T20:58:14.850Z,0.75
2022-09-05T21:01:21.947Z,0.82
2022-09-05T21:03:40.954Z,1.00
2022-09-05T21:06:23.529Z,0.68
2022-09-05T21:08:55.348Z,0.98
2022-09-05T21:11:32.465Z,0.77
2022-09-05T21:14:04.615Z,0.80
2022-09-05T21:16:36.529Z,1.15
2022-09-05T21:19:05.857Z,0.70
2022-09-05T21:21:36.780Z,0.77
2022-09-05T21:24:17.414Z,0.77
2022-09-05T21:26:51.444Z,0.80
2022-09-05T21:29:27.347Z,0.73
2022-09-05T21:32:10.367Z,0.75
2022-09-05T21:34:45.398Z,0.93
2022-09-05T21:37:17.694Z,0.80
2022-09-05T21:39:59.068Z,0.83
2022-09-05T21:44:54.176Z,0.73
2022-09-05T21:47:41.739Z,0.63
2022-09-05T21:48:15.127Z,0.88
2022-09-05T21:50:47.923Z,0.75
2022-09-05T21:58:56.638Z,0.70
2022-09-05T21:59:29.710Z,0.73
2022-09-05T21:59:30.191Z,0.80
2022-09-05T22:01:59.906Z,0.90
2022-09-05T22:04:29.390Z,0.70
2022-09-05T22:07:03.722Z,0.85
2022-09-05T22:09:34.185Z,0.60
2022-09-05T22:12:06.101Z,0.80
2022-09-05T22:14:46.939Z,0.80
2022-09-05T22:17:17.272Z,0.83
2022-09-05T22:19:46.939Z,0.50
2022-09-05T22:22:17.584Z,0.80
2022-09-05T22:25:00.168Z,0.60
2022-09-05T22:27:31.822Z,0.65
2022-09-05T22:30:01.863Z,0.70
2022-09-05T22:32:34.279Z,0.90
2022-09-05T22:35:17.857Z,0.70
2022-09-05T22:38:10.404Z,0.80
2022-09-05T22:40:42.724Z,0.90
2022-09-05T22:43:12.597Z,0.83
2022-09-05T22:45:41.860Z,0.73
2022-09-05T22:48:12.743Z,0.77
2022-09-05T22:50:43.322Z,0.70
2022-09-05T22:53:12.458Z,0.93
2022-09-05T22:55:44.206Z,0.70
2022-09-05T22:58:15.680Z,0.60
2022-09-05T23:00:45.045Z,0.80
2022-09-05T23:03:14.232Z,0.60
2022-09-05T23:05:43.362Z,0.63
2022-09-05T23:08:12.861Z,0.60
2022-09-05T23:10:43.208Z,0.80
2022-09-05T23:13:12.708Z,1.13
2022-09-05T23:15:41.785Z,0.70
2022-09-05T23:18:10.893Z,0.80
2022-09-05T23:20:40.059Z,0.50
2022-09-05T23:23:09.579Z,0.70
2022-09-05T23:25:38.571Z,0.70
2022-09-05T23:28:10.318Z,0.70
2022-09-05T23:30:40.294Z,0.70
2022-09-05T23:33:10.805Z,0.80
2022-09-05T23:35:39.885Z,0.80
2022-09-05T23:38:11.135Z,0.50
2022-09-05T23:40:40.434Z,0.87
2022-09-05T23:43:10.780Z,0.70
2022-09-05T23:45:39.742Z,0.60
2022-09-05T23:48:08.781Z,0.77
2022-09-05T23:50:37.736Z,0.80
2022-09-05T23:53:06.744Z,0.90
2022-09-05T23:55:36.652Z,0.80
2022-09-05T23:58:05.712Z,0.80
